createdAt,value
2023-01-19T00:00:10.694Z,9.366007
2023-01-19T00:01:11.923Z,9.366012
2023-01-19T00:02:10.708Z,9.366071
2023-01-19T00:03:10.650Z,9.365982
2023-01-19T00:04:10.639Z,9.366055
2023-01-19T00:05:10.605Z,9.366044
2023-01-19T00:06:10.659Z,9.366022
2023-01-19T00:07:10.615Z,9.366014
2023-01-19T00:08:10.562Z,9.366053
2023-01-19T00:09:10.558Z,9.365937
2023-01-19T00:10:10.827Z,9.365917
2023-01-19T00:11:10.575Z,9.365906
2023-01-19T00:12:10.585Z,9.365901
2023-01-19T00:13:10.545Z,9.365954
2023-01-19T00:14:10.542Z,9.365972
2023-01-19T00:15:10.499Z,9.366096
2023-01-19T00:16:10.592Z,9.366010
2023-01-19T00:17:11.479Z,9.365970
2023-01-19T00:18:11.124Z,9.365904
2023-01-19T00:19:11.474Z,9.365896
2023-01-19T00:20:10.471Z,9.365962
2023-01-19T00:21:10.458Z,9.365960
2023-01-19T00:22:10.459Z,9.366251
2023-01-19T00:23:10.420Z,9.366060
2023-01-19T00:24:10.404Z,9.366040
2023-01-19T00:25:10.424Z,9.366094
2023-01-19T00:26:10.382Z,9.366050
2023-01-19T00:27:10.439Z,9.365931
2023-01-19T00:28:10.470Z,9.365931
2023-01-19T00:29:11.457Z,9.366162
2023-01-19T00:30:10.376Z,9.366079
2023-01-19T00:31:10.390Z,9.366086
2023-01-19T00:32:10.355Z,9.366132
2023-01-19T00:33:10.352Z,9.366053
2023-01-19T00:34:10.521Z,9.366058
2023-01-19T00:35:10.298Z,9.366124
2023-01-19T00:36:10.273Z,9.366116
2023-01-19T00:37:10.303Z,9.366068
2023-01-19T00:38:10.275Z,9.366044
2023-01-19T00:39:10.250Z,9.365973
2023-01-19T00:40:10.255Z,9.366075
2023-01-19T00:41:10.225Z,9.366138
2023-01-19T00:42:10.279Z,9.366036
2023-01-19T00:43:10.227Z,9.365956
2023-01-19T00:44:10.218Z,9.365873
2023-01-19T00:45:10.179Z,9.365935
2023-01-19T00:46:10.221Z,9.365790
2023-01-19T00:47:10.156Z,9.365829
2023-01-19T00:48:10.163Z,9.365878
2023-01-19T00:49:10.174Z,9.366193
2023-01-19T00:50:10.232Z,9.366127
2023-01-19T00:51:10.107Z,9.366061
2023-01-19T00:52:10.136Z,9.365956
2023-01-19T00:53:10.089Z,9.366218
2023-01-19T00:54:10.138Z,9.366259
2023-01-19T00:55:10.078Z,9.366208
2023-01-19T00:56:10.078Z,9.366165
2023-01-19T00:57:10.040Z,9.366363
2023-01-19T00:58:10.045Z,9.365988
2023-01-19T00:59:10.036Z,9.366310
2023-01-19T01:00:10.068Z,9.366137
2023-01-19T01:01:10.077Z,9.366121
2023-01-19T01:02:10.171Z,9.365864
2023-01-19T01:03:10.065Z,9.366051
2023-01-19T01:04:10.130Z,9.365973
2023-01-19T01:05:09.967Z,9.366034
2023-01-19T01:06:10.236Z,9.365888
2023-01-19T01:07:10.193Z,9.365993
2023-01-19T01:08:09.933Z,9.365937
2023-01-19T01:09:09.926Z,9.365864
2023-01-19T01:10:09.924Z,9.365746
2023-01-19T01:11:10.896Z,9.366094
2023-01-19T01:12:09.874Z,9.366080
2023-01-19T01:13:21.070Z,9.366126
2023-01-19T01:14:09.952Z,9.366045
2023-01-19T01:15:09.885Z,9.366017
2023-01-19T01:16:09.857Z,9.366045
2023-01-19T01:17:09.856Z,9.366129
2023-01-19T01:18:09.812Z,9.366048
2023-01-19T01:19:09.792Z,9.366219
2023-01-19T01:20:10.864Z,9.366029
2023-01-19T01:21:09.783Z,9.365969
2023-01-19T01:22:09.769Z,9.366124
2023-01-19T01:23:09.782Z,9.366274
2023-01-19T01:24:09.812Z,9.366258
2023-01-19T01:25:09.725Z,9.366114
2023-01-19T01:26:09.752Z,9.366362
2023-01-19T01:27:09.689Z,9.366315
2023-01-19T01:28:10.700Z,9.366047
2023-01-19T01:29:09.690Z,9.366033
2023-01-19T01:30:09.695Z,9.366002
2023-01-19T01:31:09.732Z,9.366511
2023-01-19T01:32:09.636Z,9.366220
2023-01-19T01:33:09.634Z,9.366556
2023-01-19T01:34:09.656Z,9.365827
2023-01-19T01:35:09.600Z,9.365916
2023-01-19T01:36:09.639Z,9.366080
2023-01-19T01:37:09.599Z,9.366117
2023-01-19T01:38:09.589Z,9.366047
2023-01-19T01:39:09.580Z,9.366123
2023-01-19T01:40:09.555Z,9.366019
2023-01-19T01:41:09.546Z,9.365873
2023-01-19T01:42:09.575Z,9.365788
2023-01-19T01:43:09.521Z,9.365669
2023-01-19T01:44:09.537Z,9.365884
2023-01-19T01:45:09.505Z,9.366138
2023-01-19T01:46:09.567Z,9.366168
2023-01-19T01:47:09.553Z,9.366096
2023-01-19T01:48:09.491Z,9.365818
2023-01-19T01:49:09.468Z,9.365910
2023-01-19T01:50:09.467Z,9.365911
2023-01-19T01:51:09.460Z,9.365702
2023-01-19T01:52:09.435Z,9.365814
2023-01-19T01:53:09.697Z,9.365859
2023-01-19T01:54:09.404Z,9.365941
2023-01-19T01:55:09.407Z,9.366031
2023-01-19T01:56:09.422Z,9.366066
2023-01-19T01:57:09.402Z,9.366176
2023-01-19T01:58:09.384Z,9.366082
2023-01-19T01:59:09.381Z,9.366248
2023-01-19T02:00:09.327Z,9.366059
2023-01-19T02:01:09.420Z,9.365976
2023-01-19T02:02:09.344Z,9.365921
2023-01-19T02:03:09.379Z,9.366031
2023-01-19T02:04:09.303Z,9.366044
2023-01-19T02:05:09.325Z,9.366002
2023-01-19T02:06:09.287Z,9.365883
2023-01-19T02:07:09.271Z,9.365929
2023-01-19T02:08:09.294Z,9.365913
2023-01-19T02:09:09.262Z,9.366022
2023-01-19T02:10:09.264Z,9.366125
2023-01-19T02:11:09.255Z,9.365888
2023-01-19T02:12:09.235Z,9.366033
2023-01-19T02:13:09.213Z,9.365930
2023-01-19T02:14:09.212Z,9.365926
2023-01-19T02:15:09.185Z,9.365928
2023-01-19T02:16:09.165Z,9.365882
2023-01-19T02:17:09.152Z,9.366020
2023-01-19T02:18:09.160Z,9.365984
2023-01-19T02:19:09.514Z,9.365994
2023-01-19T02:20:09.111Z,9.365766
2023-01-19T02:21:09.154Z,9.365905
2023-01-19T02:22:09.135Z,9.365932
2023-01-19T02:23:09.093Z,9.365929
2023-01-19T02:24:09.149Z,9.365820
2023-01-19T02:25:09.085Z,9.365952
2023-01-19T02:26:09.097Z,9.365955
2023-01-19T02:27:09.068Z,9.365949
2023-01-19T02:28:09.355Z,9.365895
2023-01-19T02:29:09.027Z,9.365952
2023-01-19T02:30:09.034Z,9.366005
2023-01-19T02:31:09.016Z,9.365888
2023-01-19T02:32:09.012Z,9.365890
2023-01-19T02:33:08.998Z,9.365984
2023-01-19T02:34:09.953Z,9.365926
2023-01-19T02:35:08.975Z,9.365980
2023-01-19T02:36:08.961Z,9.365947
2023-01-19T02:37:08.952Z,9.365916
2023-01-19T02:38:08.914Z,9.365881
2023-01-19T02:39:08.955Z,9.366338
2023-01-19T02:40:08.942Z,9.366061
2023-01-19T02:41:08.892Z,9.365882
2023-01-19T02:42:08.877Z,9.365948
2023-01-19T02:43:08.875Z,9.365853
2023-01-19T02:44:09.219Z,9.365726
2023-01-19T02:45:08.892Z,9.365828
2023-01-19T02:46:08.934Z,9.365975
2023-01-19T02:47:08.819Z,9.366063
2023-01-19T02:48:08.858Z,9.366002
2023-01-19T02:49:08.796Z,9.366036
2023-01-19T02:50:08.803Z,9.366263
2023-01-19T02:51:08.835Z,9.366186
2023-01-19T02:52:09.786Z,9.366061
2023-01-19T02:53:09.506Z,9.365973
2023-01-19T02:54:09.381Z,9.365941
2023-01-19T02:55:08.754Z,9.365935
2023-01-19T02:56:10.267Z,9.365972
2023-01-19T02:57:08.707Z,9.365876
2023-01-19T02:58:08.730Z,9.366050
2023-01-19T02:59:10.220Z,9.366035
2023-01-19T03:00:08.674Z,9.365888
2023-01-19T03:01:08.842Z,9.366045
2023-01-19T03:02:08.797Z,9.365940
2023-01-19T03:03:08.731Z,9.365891
2023-01-19T03:04:08.635Z,9.366191
2023-01-19T03:05:08.634Z,9.366135
2023-01-19T03:06:08.637Z,9.366220
2023-01-19T03:07:08.623Z,9.365885
2023-01-19T03:08:08.635Z,9.366190
2023-01-19T03:09:08.597Z,9.366315
2023-01-19T03:10:08.550Z,9.366075
2023-01-19T03:11:08.586Z,9.365997
2023-01-19T03:12:08.560Z,9.365664
2023-01-19T03:13:08.561Z,9.365845
2023-01-19T03:14:09.194Z,9.366097
2023-01-19T03:15:08.515Z,9.366071
2023-01-19T03:16:08.599Z,9.366124
2023-01-19T03:17:08.502Z,9.365965
2023-01-19T03:18:08.514Z,9.366120
2023-01-19T03:19:08.469Z,9.366375
2023-01-19T03:20:08.457Z,9.366341
2023-01-19T03:21:08.472Z,9.366371
2023-01-19T03:22:08.445Z,9.366117
2023-01-19T03:23:09.021Z,9.365992
2023-01-19T03:24:08.451Z,9.365965
2023-01-19T03:25:08.411Z,9.365846
2023-01-19T03:26:08.418Z,9.366173
2023-01-19T03:27:08.424Z,9.366084
2023-01-19T03:28:08.366Z,9.365940
2023-01-19T03:29:08.349Z,9.365618
2023-01-19T03:30:08.374Z,9.365812
2023-01-19T03:31:08.471Z,9.366051
2023-01-19T03:32:08.350Z,9.365941
2023-01-19T03:33:08.296Z,9.366062
2023-01-19T03:34:08.322Z,9.366003
2023-01-19T03:35:08.279Z,9.366059
2023-01-19T03:36:08.419Z,9.366056
2023-01-19T03:37:08.278Z,9.366065
2023-01-19T03:38:08.243Z,9.365983
2023-01-19T03:39:08.279Z,9.365986
2023-01-19T03:40:08.237Z,9.366084
2023-01-19T03:41:08.259Z,9.366163
2023-01-19T03:42:09.243Z,9.366082
2023-01-19T03:43:08.198Z,9.365987
2023-01-19T03:44:08.202Z,9.365962
2023-01-19T03:45:08.219Z,9.366062
2023-01-19T03:46:08.209Z,9.366005
2023-01-19T03:47:09.167Z,9.365938
2023-01-19T03:48:08.144Z,9.365909
2023-01-19T03:49:08.123Z,9.365939
2023-01-19T03:50:08.144Z,9.365945
2023-01-19T03:51:08.131Z,9.365989
2023-01-19T03:52:08.130Z,9.366029
2023-01-19T03:53:08.102Z,9.366001
2023-01-19T03:54:08.074Z,9.365972
2023-01-19T03:55:08.062Z,9.365947
2023-01-19T03:56:08.053Z,9.365967
2023-01-19T03:57:08.079Z,9.366030
2023-01-19T03:58:08.109Z,9.366177
2023-01-19T03:59:08.007Z,9.366161
2023-01-19T04:00:08.071Z,9.366204
2023-01-19T04:01:08.062Z,9.366218
2023-01-19T04:02:08.039Z,9.366111
2023-01-19T04:03:08.037Z,9.366123
2023-01-19T04:04:07.968Z,9.366030
2023-01-19T04:05:07.943Z,9.365951
2023-01-19T04:06:08.263Z,9.366055
2023-01-19T04:07:07.935Z,9.366025
2023-01-19T04:08:08.717Z,9.365997
2023-01-19T04:09:07.947Z,9.366096
2023-01-19T04:10:07.940Z,9.366040
2023-01-19T04:11:07.883Z,9.365994
2023-01-19T04:12:07.880Z,9.365916
2023-01-19T04:13:07.891Z,9.366054
2023-01-19T04:14:07.876Z,9.366108
2023-01-19T04:15:07.872Z,9.366101
2023-01-19T04:16:07.878Z,9.365919
2023-01-19T04:17:07.837Z,9.366024
2023-01-19T04:18:07.807Z,9.365967
2023-01-19T04:19:07.859Z,9.365965
2023-01-19T04:20:07.797Z,9.365964
2023-01-19T04:21:07.776Z,9.365958
2023-01-19T04:22:07.766Z,9.365992
2023-01-19T04:23:07.755Z,9.365935
2023-01-19T04:24:07.767Z,9.366016
2023-01-19T04:25:07.725Z,9.366131
2023-01-19T04:26:07.712Z,9.366085
2023-01-19T04:27:07.700Z,9.366000
2023-01-19T04:28:07.690Z,9.366003
2023-01-19T04:29:07.694Z,9.365878
2023-01-19T04:30:07.712Z,9.365855
2023-01-19T04:31:07.724Z,9.365904
2023-01-19T04:32:07.658Z,9.365955
2023-01-19T04:33:07.631Z,9.366013
2023-01-19T04:34:07.670Z,9.366069
2023-01-19T04:35:07.678Z,9.366090
2023-01-19T04:36:07.623Z,9.365987
2023-01-19T04:37:07.603Z,9.365924
2023-01-19T04:38:07.568Z,9.365812
2023-01-19T04:39:07.595Z,9.365938
2023-01-19T04:40:07.572Z,9.365978
2023-01-19T04:41:07.608Z,9.366046
2023-01-19T04:42:07.559Z,9.366010
2023-01-19T04:43:07.523Z,9.365933
2023-01-19T04:44:07.517Z,9.365909
2023-01-19T04:45:07.519Z,9.366046
2023-01-19T04:46:07.597Z,9.366019
2023-01-19T04:47:07.488Z,9.365851
2023-01-19T04:48:07.503Z,9.365917
2023-01-19T04:49:07.474Z,9.366127
2023-01-19T04:50:07.448Z,9.366014
2023-01-19T04:51:07.442Z,9.365956
2023-01-19T04:52:07.478Z,9.365924
2023-01-19T04:53:07.415Z,9.366106
2023-01-19T04:54:07.421Z,9.366188
2023-01-19T04:55:07.418Z,9.366016
2023-01-19T04:56:07.411Z,9.366073
2023-01-19T04:57:07.438Z,9.365840
2023-01-19T04:58:07.379Z,9.366057
2023-01-19T04:59:07.391Z,9.365880
2023-01-19T05:00:07.352Z,9.365964
2023-01-19T05:01:07.353Z,9.365887
2023-01-19T05:02:07.346Z,9.366131
2023-01-19T05:03:07.451Z,9.366072
2023-01-19T05:04:07.299Z,9.366531
2023-01-19T05:05:07.306Z,9.366075
2023-01-19T05:06:07.313Z,9.366303
2023-01-19T05:07:07.268Z,9.366187
2023-01-19T05:08:07.276Z,9.365754
2023-01-19T05:09:07.249Z,9.365927
2023-01-19T05:10:07.233Z,9.365975
2023-01-19T05:11:07.209Z,9.366161
2023-01-19T05:12:08.232Z,9.366124
2023-01-19T05:13:07.309Z,9.365617
2023-01-19T05:14:07.220Z,9.365975
2023-01-19T05:15:07.188Z,9.365948
2023-01-19T05:16:07.225Z,9.365812
2023-01-19T05:17:07.152Z,9.366113
2023-01-19T05:18:07.156Z,9.366393
2023-01-19T05:19:07.141Z,9.366344
2023-01-19T05:20:08.134Z,9.366085
2023-01-19T05:21:07.106Z,9.366059
2023-01-19T05:22:07.144Z,9.365919
2023-01-19T05:23:07.090Z,9.365917
2023-01-19T05:24:07.186Z,9.365994
2023-01-19T05:25:07.074Z,9.365949
2023-01-19T05:26:08.874Z,9.365971
2023-01-19T05:27:07.061Z,9.366054
2023-01-19T05:28:07.038Z,9.365990
2023-01-19T05:29:07.063Z,9.366028
2023-01-19T05:30:07.010Z,9.366009
2023-01-19T05:31:07.152Z,9.366031
2023-01-19T05:32:07.072Z,9.366033
2023-01-19T05:33:06.985Z,9.365987
2023-01-19T05:34:07.032Z,9.365958
2023-01-19T05:35:06.976Z,9.365898
2023-01-19T05:36:06.936Z,9.365933
2023-01-19T05:37:06.916Z,9.365893
2023-01-19T05:38:06.930Z,9.365911
2023-01-19T05:39:06.899Z,9.365920
2023-01-19T05:40:06.954Z,9.365957
2023-01-19T05:41:06.895Z,9.365981
2023-01-19T05:42:06.876Z,9.365984
2023-01-19T05:43:06.882Z,9.366061
2023-01-19T05:44:06.892Z,9.366073
2023-01-19T05:45:06.898Z,9.366059
2023-01-19T05:46:06.958Z,9.366077
2023-01-19T05:47:06.820Z,9.366047
2023-01-19T05:48:08.224Z,9.365979
2023-01-19T05:49:06.813Z,9.366001
2023-01-19T05:50:06.790Z,9.365983
2023-01-19T05:51:06.808Z,9.365995
2023-01-19T05:52:06.780Z,9.365973
2023-01-19T05:53:06.755Z,9.365962
2023-01-19T05:54:06.746Z,9.365967
2023-01-19T05:55:06.762Z,9.365987
2023-01-19T05:56:06.771Z,9.365945
2023-01-19T05:57:06.754Z,9.366120
2023-01-19T05:58:06.715Z,9.366017
2023-01-19T05:59:06.672Z,9.365703
2023-01-19T06:00:06.681Z,9.365747
2023-01-19T06:01:06.781Z,9.365797
2023-01-19T06:02:06.802Z,9.365797
2023-01-19T06:03:06.726Z,9.365797
2023-01-19T06:04:06.673Z,9.365797
2023-01-19T06:05:06.615Z,9.365797
2023-01-19T06:06:06.619Z,9.365797
2023-01-19T06:07:06.672Z,9.365797
2023-01-19T06:08:06.994Z,9.365797
2023-01-19T06:09:06.581Z,9.365797
2023-01-19T06:10:06.576Z,9.365797
2023-01-19T06:11:06.540Z,9.365797
2023-01-19T06:12:06.685Z,9.365797
2023-01-19T06:13:06.561Z,9.365797
2023-01-19T06:14:06.560Z,9.365797
2023-01-19T06:15:06.895Z,9.365854
2023-01-19T06:16:06.593Z,9.365854
2023-01-19T06:17:07.136Z,9.365898
2023-01-19T06:18:06.528Z,9.365909
2023-01-19T06:19:06.495Z,9.365902
2023-01-19T06:20:06.465Z,9.365986
2023-01-19T06:21:06.456Z,9.365874
2023-01-19T06:22:06.449Z,9.365940
2023-01-19T06:23:06.463Z,9.365933
2023-01-19T06:24:06.420Z,9.366044
2023-01-19T06:25:06.397Z,9.365974
2023-01-19T06:26:06.416Z,9.365958
2023-01-19T06:27:06.443Z,9.365990
2023-01-19T06:28:06.387Z,9.366072
2023-01-19T06:29:06.392Z,9.366137
2023-01-19T06:30:06.332Z,9.366003
2023-01-19T06:31:06.398Z,9.366085
2023-01-19T06:32:06.386Z,9.366062
2023-01-19T06:33:06.315Z,9.365866
2023-01-19T06:34:06.297Z,9.365892
2023-01-19T06:35:06.331Z,9.366014
2023-01-19T06:36:06.274Z,9.366125
2023-01-19T06:37:06.309Z,9.366115
2023-01-19T06:38:06.309Z,9.366076
2023-01-19T06:39:06.241Z,9.365960
2023-01-19T06:40:06.235Z,9.365958
2023-01-19T06:41:06.246Z,9.366067
2023-01-19T06:42:06.240Z,9.366048
2023-01-19T06:43:06.221Z,9.366088
2023-01-19T06:44:06.221Z,9.366091
2023-01-19T06:45:06.195Z,9.366080
2023-01-19T06:46:06.235Z,9.366017
2023-01-19T06:47:15.010Z,9.365980
2023-01-19T06:48:07.198Z,9.365971
2023-01-19T06:49:06.161Z,9.366075
2023-01-19T06:50:06.134Z,9.366103
2023-01-19T06:51:06.112Z,9.366059
2023-01-19T06:52:06.126Z,9.366259
2023-01-19T06:53:06.118Z,9.366056
2023-01-19T06:54:06.093Z,9.366048
2023-01-19T06:55:06.102Z,9.366059
2023-01-19T06:56:06.071Z,9.366054
2023-01-19T06:57:06.049Z,9.366068
2023-01-19T06:58:06.095Z,9.365828
2023-01-19T06:59:06.034Z,9.366010
2023-01-19T07:00:06.029Z,9.365970
2023-01-19T07:01:06.129Z,9.365869
2023-01-19T07:02:06.068Z,9.365936
2023-01-19T07:03:06.784Z,9.366035
2023-01-19T07:04:06.011Z,9.366010
2023-01-19T07:05:05.964Z,9.365994
2023-01-19T07:06:05.967Z,9.365966
2023-01-19T07:07:05.942Z,9.365937
2023-01-19T07:08:05.935Z,9.366035
2023-01-19T07:09:05.978Z,9.366093
2023-01-19T07:10:05.929Z,9.366023
2023-01-19T07:11:24.857Z,9.365991
2023-01-19T07:12:07.892Z,9.365975
2023-01-19T07:13:05.879Z,9.365956
2023-01-19T07:14:05.948Z,9.365968
2023-01-19T07:15:05.884Z,9.365959
2023-01-19T07:16:07.339Z,9.365957
2023-01-19T07:17:05.865Z,9.366003
2023-01-19T07:18:05.840Z,9.366044
2023-01-19T07:19:05.830Z,9.366106
2023-01-19T07:20:05.845Z,9.366068
2023-01-19T07:21:05.832Z,9.366253
2023-01-19T07:22:06.283Z,9.366069
2023-01-19T07:23:05.797Z,9.366075
2023-01-19T07:24:05.767Z,9.366050
2023-01-19T07:25:05.840Z,9.366014
2023-01-19T07:26:05.763Z,9.366021
2023-01-19T07:27:05.734Z,9.366044
2023-01-19T07:28:05.744Z,9.366015
2023-01-19T07:29:05.719Z,9.365973
2023-01-19T07:30:05.791Z,9.365946
2023-01-19T07:31:05.779Z,9.365996
2023-01-19T07:32:05.689Z,9.366036
2023-01-19T07:33:05.666Z,9.366049
2023-01-19T07:34:05.702Z,9.366026
2023-01-19T07:35:05.637Z,9.365998
2023-01-19T07:36:05.703Z,9.366016
2023-01-19T07:37:05.627Z,9.365981
2023-01-19T07:38:05.709Z,9.365963
2023-01-19T07:39:05.671Z,9.365973
2023-01-19T07:40:05.585Z,9.366002
2023-01-19T07:41:05.668Z,9.366052
2023-01-19T07:42:05.568Z,9.366055
2023-01-19T07:43:05.555Z,9.366082
2023-01-19T07:44:05.608Z,9.366083
2023-01-19T07:45:05.547Z,9.365981
2023-01-19T07:46:05.584Z,9.365947
2023-01-19T07:47:05.539Z,9.366013
2023-01-19T07:48:05.499Z,9.366046
2023-01-19T07:49:05.484Z,9.365887
2023-01-19T07:50:05.530Z,9.366068
2023-01-19T07:51:05.573Z,9.366125
2023-01-19T07:52:05.535Z,9.366060
2023-01-19T07:53:05.470Z,9.366273
2023-01-19T07:54:05.475Z,9.366191
2023-01-19T07:55:05.447Z,9.366005
2023-01-19T07:56:05.406Z,9.365713
2023-01-19T07:57:05.459Z,9.365635
2023-01-19T07:58:05.401Z,9.365907
2023-01-19T07:59:05.425Z,9.365949
2023-01-19T08:00:05.370Z,9.366147
2023-01-19T08:01:05.424Z,9.366143
2023-01-19T08:02:05.519Z,9.366143
2023-01-19T08:03:05.543Z,9.366222
2023-01-19T08:04:05.360Z,9.366022
2023-01-19T08:05:05.308Z,9.366022
2023-01-19T08:06:05.339Z,9.366022
2023-01-19T08:07:05.332Z,9.366022
2023-01-19T08:08:05.299Z,9.366022
2023-01-19T08:09:05.270Z,9.366022
2023-01-19T08:10:05.242Z,9.366022
2023-01-19T08:11:05.245Z,9.366022
2023-01-19T08:12:05.353Z,9.366022
2023-01-19T08:13:05.225Z,9.366022
2023-01-19T08:14:07.776Z,9.366022
2023-01-19T08:15:06.410Z,9.366022
2023-01-19T08:16:05.257Z,9.366022
2023-01-19T08:17:05.187Z,9.366022
2023-01-19T08:18:05.185Z,9.366022
2023-01-19T08:19:05.185Z,9.365977
2023-01-19T08:20:05.151Z,9.365942
2023-01-19T08:21:05.124Z,9.365796
2023-01-19T08:22:05.121Z,9.365796
2023-01-19T08:23:05.231Z,9.365761
2023-01-19T08:24:05.280Z,9.365735
2023-01-19T08:25:05.098Z,9.366377
2023-01-19T08:26:05.081Z,9.366631
2023-01-19T08:27:05.114Z,9.366631
2023-01-19T08:28:05.034Z,9.366631
2023-01-19T08:29:05.060Z,9.366631
2023-01-19T08:30:05.102Z,9.366631
2023-01-19T08:31:18.492Z,9.366631
2023-01-19T08:32:06.137Z,9.366631
2023-01-19T08:33:05.056Z,9.366631
2023-01-19T08:34:04.979Z,9.366631
2023-01-19T08:35:05.013Z,9.366631
2023-01-19T08:36:04.983Z,9.366631
2023-01-19T08:37:04.933Z,9.366631
2023-01-19T08:38:04.938Z,9.366631
2023-01-19T08:39:04.919Z,9.366631
2023-01-19T08:40:04.928Z,9.366631
2023-01-19T08:41:04.922Z,9.366631
2023-01-19T08:42:04.912Z,9.366631
2023-01-19T08:43:04.876Z,9.366631
2023-01-19T08:44:04.864Z,9.366631
2023-01-19T08:45:04.876Z,9.366631
2023-01-19T08:46:04.896Z,9.366631
2023-01-19T08:47:04.864Z,9.366631
2023-01-19T08:48:04.877Z,9.366631
2023-01-19T08:49:04.829Z,9.366631
2023-01-19T08:50:04.805Z,9.366631
2023-01-19T08:51:04.841Z,9.366631
2023-01-19T08:52:04.771Z,9.366631
2023-01-19T08:53:04.796Z,9.366631
2023-01-19T08:54:04.763Z,9.366631
2023-01-19T08:55:04.730Z,9.366631
2023-01-19T08:56:04.767Z,9.365971
2023-01-19T08:57:04.787Z,9.365996
2023-01-19T08:58:04.764Z,9.365996
2023-01-19T08:59:09.843Z,9.365996
2023-01-19T09:00:05.679Z,9.365996
2023-01-19T09:01:04.696Z,9.365996
2023-01-19T09:02:04.869Z,9.365996
2023-01-19T09:03:05.226Z,9.366104
2023-01-19T09:04:04.646Z,9.366146
2023-01-19T09:05:04.675Z,9.366148
2023-01-19T09:06:04.630Z,9.366237
2023-01-19T09:08:04.631Z,9.365937
2023-01-19T09:09:04.590Z,9.365924
2023-01-19T09:10:04.625Z,9.365939
2023-01-19T09:11:04.637Z,9.365884
2023-01-19T09:12:04.559Z,9.365962
2023-01-19T09:13:04.580Z,9.366059
2023-01-19T09:14:04.571Z,9.366032
2023-01-19T09:15:04.538Z,9.365816
2023-01-19T09:16:05.637Z,9.365748
2023-01-19T09:17:04.509Z,9.365892
2023-01-19T09:18:04.531Z,9.366082
2023-01-19T09:19:04.520Z,9.365874
2023-01-19T09:20:04.513Z,9.365996
2023-01-19T09:21:04.469Z,9.365905
2023-01-19T09:22:04.447Z,9.365964
2023-01-19T09:23:04.460Z,9.366102
2023-01-19T09:24:04.493Z,9.366047
2023-01-19T09:25:04.423Z,9.366047
2023-01-19T09:26:04.421Z,9.366140
2023-01-19T09:27:04.440Z,9.366168
2023-01-19T09:28:04.387Z,9.366047
2023-01-19T09:29:04.432Z,9.366357
2023-01-19T09:30:04.378Z,9.366246
2023-01-19T09:31:04.480Z,9.365998
2023-01-19T09:32:04.336Z,9.365668
2023-01-19T09:33:04.508Z,9.365591
2023-01-19T09:34:04.329Z,9.364635
2023-01-19T09:35:04.320Z,9.365714
2023-01-19T09:36:04.312Z,9.365952
2023-01-19T09:37:04.282Z,9.366138
2023-01-19T09:38:04.351Z,9.366042
2023-01-19T09:39:04.264Z,9.366127
2023-01-19T09:40:04.327Z,9.365924
2023-01-19T09:41:04.268Z,9.365695
2023-01-19T09:42:04.233Z,9.366014
2023-01-19T09:43:04.239Z,9.366298
2023-01-19T09:44:04.207Z,9.366481
2023-01-19T09:45:05.270Z,9.366481
2023-01-19T09:46:04.273Z,9.366481
2023-01-19T09:47:04.199Z,9.366481
2023-01-19T09:48:04.170Z,9.366481
2023-01-19T09:49:04.179Z,9.366481
2023-01-19T09:50:04.166Z,9.366481
2023-01-19T09:51:04.141Z,9.366481
2023-01-19T09:52:04.134Z,9.366481
2023-01-19T09:53:04.111Z,9.366481
2023-01-19T09:54:04.130Z,9.366481
2023-01-19T09:55:04.099Z,9.366481
2023-01-19T09:56:04.104Z,9.366481
2023-01-19T09:57:04.482Z,9.366481
2023-01-19T09:58:04.294Z,9.366481
2023-01-19T09:59:04.045Z,9.366481
2023-01-19T10:00:04.041Z,9.366481
2023-01-19T10:01:04.210Z,9.366481
2023-01-19T10:02:03.994Z,9.366481
2023-01-19T10:03:04.304Z,9.366481
2023-01-19T10:04:03.983Z,9.366481
2023-01-19T10:05:03.952Z,9.366481
2023-01-19T10:06:04.357Z,9.366481
2023-01-19T10:07:03.941Z,9.366481
2023-01-19T10:08:03.989Z,9.366481
2023-01-19T10:09:03.933Z,9.366481
2023-01-19T10:10:03.927Z,9.365881
2023-01-19T10:11:03.918Z,9.365819
2023-01-19T10:12:03.953Z,9.366080
2023-01-19T10:13:04.038Z,9.365984
2023-01-19T10:14:03.877Z,9.365930
2023-01-19T10:15:03.870Z,9.365895
2023-01-19T10:16:03.889Z,9.366139
2023-01-19T10:17:03.887Z,9.366009
2023-01-19T10:18:03.981Z,9.366071
2023-01-19T10:19:03.811Z,9.365924
2023-01-19T10:20:03.793Z,9.365806
2023-01-19T10:21:05.501Z,9.365832
2023-01-19T10:22:04.824Z,9.365859
2023-01-19T10:23:04.261Z,9.365831
2023-01-19T10:24:05.772Z,9.365831
2023-01-19T10:25:04.775Z,9.365908
2023-01-19T10:26:03.771Z,9.365830
2023-01-19T10:27:03.727Z,9.365955
2023-01-19T10:28:03.793Z,9.365955
2023-01-19T10:29:03.713Z,9.365955
2023-01-19T10:30:03.682Z,9.365955
2023-01-19T10:31:03.850Z,9.365955
2023-01-19T10:32:03.886Z,9.365955
2023-01-19T10:33:03.969Z,9.365955
2023-01-19T10:34:03.648Z,9.365955
2023-01-19T10:35:04.641Z,9.365955
2023-01-19T10:36:03.610Z,9.365955
2023-01-19T10:37:03.612Z,9.365955
2023-01-19T10:38:03.637Z,9.365955
2023-01-19T10:39:03.622Z,9.365955
2023-01-19T10:40:03.615Z,9.366112
2023-01-19T10:41:03.587Z,9.366000
2023-01-19T10:42:03.655Z,9.365880
2023-01-19T10:43:04.113Z,9.365888
2023-01-19T10:44:03.599Z,9.366128
2023-01-19T10:45:03.555Z,9.366095
2023-01-19T10:46:03.653Z,9.366096
2023-01-19T10:47:03.489Z,9.365959
2023-01-19T10:48:03.534Z,9.365999
2023-01-19T10:49:03.528Z,9.365940
2023-01-19T10:50:04.522Z,9.366236
2023-01-19T10:51:03.512Z,9.366456
2023-01-19T10:52:04.175Z,9.366248
2023-01-19T10:53:04.024Z,9.366086
2023-01-19T10:54:03.536Z,9.366244
2023-01-19T10:55:03.457Z,9.366351
2023-01-19T10:56:03.420Z,9.365850
2023-01-19T10:57:03.545Z,9.365900
2023-01-19T10:58:03.449Z,9.365173
2023-01-19T10:59:03.479Z,9.364883
2023-01-19T11:00:03.386Z,9.365539
2023-01-19T11:01:04.060Z,9.365923
2023-01-19T11:02:03.541Z,9.366495
2023-01-19T11:03:03.946Z,9.366501
2023-01-19T11:04:03.356Z,9.365953
2023-01-19T11:05:03.373Z,9.365566
2023-01-19T11:06:03.311Z,9.365780
2023-01-19T11:07:03.342Z,9.366162
2023-01-19T11:08:03.298Z,9.366053
2023-01-19T11:09:03.266Z,9.365791
2023-01-19T11:10:03.298Z,9.365715
2023-01-19T11:11:03.260Z,9.365715
2023-01-19T11:12:03.231Z,9.365715
2023-01-19T11:13:03.824Z,9.365715
2023-01-19T11:14:03.251Z,9.365715
2023-01-19T11:15:03.249Z,9.365715
2023-01-19T11:16:04.239Z,9.365715
2023-01-19T11:17:03.285Z,9.365715
2023-01-19T11:18:03.333Z,9.365715
2023-01-19T11:19:03.186Z,9.365715
2023-01-19T11:20:03.147Z,9.365715
2023-01-19T11:21:03.200Z,9.365715
2023-01-19T11:22:03.125Z,9.365715
2023-01-19T11:23:03.405Z,9.365715
2023-01-19T11:24:03.138Z,9.365715
2023-01-19T11:25:03.099Z,9.365715
2023-01-19T11:26:03.118Z,9.365715
2023-01-19T11:27:03.114Z,9.365715
2023-01-19T11:28:03.076Z,9.365715
2023-01-19T11:29:03.075Z,9.365715
2023-01-19T11:30:03.040Z,9.365715
2023-01-19T11:31:03.099Z,9.365715
2023-01-19T11:32:03.146Z,9.366164
2023-01-19T11:33:03.282Z,9.366112
2023-01-19T11:34:02.998Z,9.366033
2023-01-19T11:35:03.014Z,9.366096
2023-01-19T11:36:02.977Z,9.365955
2023-01-19T11:37:03.016Z,9.366072
2023-01-19T11:38:02.951Z,9.365979
2023-01-19T11:39:02.956Z,9.365882
2023-01-19T11:40:02.952Z,9.365771
2023-01-19T11:41:02.935Z,9.365965
2023-01-19T11:42:02.929Z,9.365877
2023-01-19T11:43:03.310Z,9.365971
2023-01-19T11:44:02.920Z,9.366064
2023-01-19T11:45:02.907Z,9.366026